Time;durP1;ratioP1;P1;durP2;ratioP2;P2;SDS_P1;SDS_P2;PMS_P1;PMS_P2;Temp;Humidity;BMP_temperature;BMP_pressure;BME280_temperature;BME280_humidity;BME280_pressure;Samples;Min_cycle;Max_cycle;Signal;HPM_P1;HPM_P2
2023/11/23 00:01:10;;;;;;;4.27;3.07;;;9.30;92.30;;;;;;5019780;28;20510;-43
2023/11/23 00:03:38;;;;;;;3.03;2.70;;;9.40;92.30;;;;;;5003445;28;21061;-43
2023/11/23 00:06:07;;;;;;;4.33;3.50;;;9.30;92.30;;;;;;5009042;28;20478;-44
2023/11/23 00:08:35;;;;;;;3.43;3.13;;;9.30;92.30;;;;;;5008926;28;20993;-43
2023/11/23 00:11:03;;;;;;;3.23;2.93;;;9.30;92.40;;;;;;5007010;28;20445;-43
2023/11/23 00:13:33;;;;;;;5.37;3.90;;;9.30;92.40;;;;;;5005569;28;20489;-44
2023/11/23 00:16:02;;;;;;;3.70;3.00;;;9.30;92.40;;;;;;5009326;28;20454;-44
2023/11/23 00:18:31;;;;;;;3.70;2.53;;;9.30;92.40;;;;;;5008393;28;20500;-43
2023/11/23 00:20:59;;;;;;;4.77;2.77;;;9.30;92.40;;;;;;5007444;28;20456;-43
2023/11/23 00:23:27;;;;;;;4.10;3.37;;;9.30;92.40;;;;;;5005540;28;20544;-44
2023/11/23 00:25:56;;;;;;;3.93;2.67;;;9.30;92.40;;;;;;5004949;28;20451;-43
2023/11/23 00:28:24;;;;;;;4.47;3.00;;;9.30;92.40;;;;;;5008543;28;20530;-43
2023/11/23 00:30:52;;;;;;;3.87;3.30;;;9.30;92.40;;;;;;5008862;28;20440;-43
2023/11/23 00:33:20;;;;;;;5.43;3.13;;;9.30;92.50;;;;;;5007381;28;20465;-43
2023/11/23 00:35:50;;;;;;;4.70;4.27;;;9.30;92.50;;;;;;5025956;28;20508;-43
2023/11/23 00:38:18;;;;;;;4.13;2.90;;;9.30;92.50;;;;;;5011004;28;20465;-44
2023/11/23 00:40:47;;;;;;;4.10;2.90;;;9.30;92.50;;;;;;5009414;28;20954;-43
2023/11/23 00:43:15;;;;;;;3.33;2.90;;;9.30;92.50;;;;;;5002614;28;21080;-43
2023/11/23 00:45:43;;;;;;;3.50;2.83;;;9.30;92.50;;;;;;5028034;28;20479;-43
2023/11/23 00:48:11;;;;;;;3.83;3.43;;;9.30;92.50;;;;;;5010408;28;20493;-44
2023/11/23 00:50:39;;;;;;;3.90;3.50;;;9.30;92.50;;;;;;5008239;28;20872;-43
2023/11/23 00:53:09;;;;;;;3.93;3.20;;;9.30;92.60;;;;;;5004466;28;20484;-43
2023/11/23 00:55:38;;;;;;;4.17;3.03;;;9.30;92.60;;;;;;5006555;28;20950;-44
2023/11/23 00:58:06;;;;;;;3.60;3.30;;;9.30;92.70;;;;;;5008571;28;20473;-44
2023/11/23 01:00:34;;;;;;;4.90;2.63;;;9.30;92.70;;;;;;5001384;28;21013;-45
2023/11/23 01:03:02;;;;;;;5.20;3.00;;;9.30;92.70;;;;;;5008036;28;20481;-44
2023/11/23 01:05:30;;;;;;;4.30;3.50;;;9.30;92.70;;;;;;5012606;28;20430;-44
2023/11/23 01:07:59;;;;;;;4.40;3.00;;;9.30;92.80;;;;;;5004471;28;20476;-45
2023/11/23 01:10:28;;;;;;;4.00;2.80;;;9.30;92.80;;;;;;5009890;28;20468;-43
2023/11/23 01:12:59;;;;;;;4.53;3.00;;;9.30;92.80;;;;;;5008245;28;20494;-43
2023/11/23 01:15:27;;;;;;;3.23;2.30;;;9.30;92.80;;;;;;5011925;28;20433;-44
2023/11/23 01:17:56;;;;;;;4.65;3.05;;;9.30;92.80;;;;;;5009363;28;20445;-43
2023/11/23 01:20:24;;;;;;;3.20;2.60;;;9.30;92.90;;;;;;5008700;28;20652;-43
2023/11/23 01:22:52;;;;;;;3.77;3.27;;;9.30;92.90;;;;;;5004574;28;20993;-43
2023/11/23 01:25:21;;;;;;;3.50;2.93;;;9.30;93.00;;;;;;5019355;28;20491;-44
2023/11/23 01:27:50;;;;;;;6.73;3.03;;;9.30;93.00;;;;;;5006161;28;20479;-43
2023/11/23 01:30:19;;;;;;;3.93;3.23;;;9.30;93.00;;;;;;5008068;28;20427;-43
2023/11/23 01:32:48;;;;;;;4.57;3.17;;;9.20;93.00;;;;;;5008131;28;20468;-44
2023/11/23 01:35:16;;;;;;;3.50;2.93;;;9.30;93.10;;;;;;5008590;28;20842;-43
2023/11/23 01:37:44;;;;;;;5.67;3.40;;;9.30;93.10;;;;;;5009902;28;20504;-44
2023/11/23 01:40:12;;;;;;;4.60;2.90;;;9.20;93.20;;;;;;4998312;28;20524;-43
2023/11/23 01:42:41;;;;;;;3.50;2.73;;;9.30;93.20;;;;;;5009185;28;20626;-43
2023/11/23 01:45:11;;;;;;;3.93;2.57;;;9.20;93.20;;;;;;5010517;28;20439;-44
2023/11/23 01:47:43;;;;;;;4.10;2.93;;;9.20;93.20;;;;;;5004229;28;20480;-43
2023/11/23 01:50:14;;;;;;;3.90;3.43;;;9.20;93.20;;;;;;5229233;22;20527;-43
2023/11/23 01:55:48;;;;;;;3.60;3.13;;;9.20;93.30;;;;;;5148111;23;21043;-48
2023/11/23 01:58:19;;;;;;;6.73;3.30;;;9.20;93.40;;;;;;4968503;28;20475;-48
2023/11/23 02:00:50;;;;;;;4.60;3.10;;;9.20;93.40;;;;;;4968338;28;20438;-47
2023/11/23 02:03:38;;;;;;;4.17;3.23;;;9.20;93.30;;;;;;4966998;28;20529;-45
2023/11/23 02:06:25;;;;;;;4.60;2.83;;;9.20;93.40;;;;;;4966432;28;20414;-44
2023/11/23 02:09:12;;;;;;;3.50;2.70;;;9.20;93.30;;;;;;4972228;28;20557;-46
2023/11/23 02:12:01;;;;;;;3.60;2.50;;;9.20;93.30;;;;;;4968807;28;20470;-46
2023/11/23 02:14:49;;;;;;;3.70;2.87;;;9.20;93.30;;;;;;4970946;28;20458;-46
2023/11/23 02:17:37;;;;;;;4.53;3.03;;;9.20;93.40;;;;;;4970256;28;20521;-49
2023/11/23 02:20:24;;;;;;;3.90;2.80;;;9.20;93.40;;;;;;4967263;28;20766;-47
2023/11/23 02:23:11;;;;;;;4.10;3.10;;;9.20;93.40;;;;;;4971079;28;20994;-49
2023/11/23 02:25:58;;;;;;;4.30;3.20;;;9.20;93.50;;;;;;4981173;28;20446;-45
2023/11/23 02:28:45;;;;;;;5.07;3.17;;;9.20;93.50;;;;;;4979609;28;20474;-47
2023/11/23 02:31:33;;;;;;;3.90;3.07;;;9.20;93.60;;;;;;4970798;28;20457;-45
2023/11/23 02:34:20;;;;;;;3.30;2.70;;;9.20;93.60;;;;;;4970247;28;20513;-45
2023/11/23 02:37:12;;;;;;;4.00;3.17;;;9.20;93.60;;;;;;4969677;28;20461;-44
2023/11/23 02:39:59;;;;;;;4.87;3.03;;;9.20;93.60;;;;;;4967001;28;20454;-49
2023/11/23 02:42:47;;;;;;;3.57;3.00;;;9.20;93.70;;;;;;4970713;28;20477;-47
2023/11/23 02:45:34;;;;;;;6.13;3.30;;;9.20;93.60;;;;;;4971656;28;20517;-45
2023/11/23 02:48:21;;;;;;;4.60;3.20;;;9.20;93.70;;;;;;4962544;28;20469;-46
2023/11/23 02:51:07;;;;;;;5.40;2.80;;;9.20;93.80;;;;;;4968957;28;20224;-47
2023/11/23 02:53:54;;;;;;;3.80;3.27;;;9.20;93.70;;;;;;4968819;28;20592;-46
2023/11/23 02:56:41;;;;;;;6.03;3.20;;;9.20;93.70;;;;;;4965826;28;20948;-47
2023/11/23 02:59:29;;;;;;;4.10;3.07;;;9.20;93.80;;;;;;4968155;28;20422;-46
2023/11/23 03:02:15;;;;;;;3.07;2.43;;;9.20;93.70;;;;;;4970630;28;20466;-48
2023/11/23 03:05:05;;;;;;;5.40;3.20;;;9.20;93.70;;;;;;4969063;28;20434;-45
2023/11/23 03:07:52;;;;;;;3.47;2.80;;;9.20;93.80;;;;;;4969925;28;20601;-44
2023/11/23 03:10:39;;;;;;;5.80;2.40;;;9.20;93.70;;;;;;4968452;28;20929;-47
2023/11/23 03:13:07;;;;;;;4.23;2.97;;;9.20;93.60;;;;;;4970730;28;20490;-46
2023/11/23 03:15:36;;;;;;;3.73;2.80;;;9.20;93.60;;;;;;4969479;28;20431;-45
2023/11/23 03:18:05;;;;;;;4.17;2.90;;;9.20;93.80;;;;;;4967573;28;20494;-46
2023/11/23 03:20:34;;;;;;;3.27;2.23;;;9.20;93.70;;;;;;4967623;28;20449;-46
2023/11/23 03:23:02;;;;;;;4.07;3.10;;;9.20;93.60;;;;;;4970199;28;20529;-44
2023/11/23 03:25:30;;;;;;;3.13;2.77;;;9.20;93.70;;;;;;4967995;28;20435;-45
2023/11/23 03:27:58;;;;;;;4.93;2.83;;;9.20;93.80;;;;;;4968360;28;20479;-46
2023/11/23 03:30:27;;;;;;;3.57;2.90;;;9.20;93.70;;;;;;4968665;28;20483;-45
2023/11/23 03:32:56;;;;;;;3.97;3.10;;;9.20;93.70;;;;;;4968760;28;20495;-46
2023/11/23 03:35:25;;;;;;;3.73;2.73;;;9.20;93.80;;;;;;4964343;28;20952;-44
2023/11/23 03:37:53;;;;;;;4.00;3.00;;;9.20;93.80;;;;;;4969488;28;20471;-44
2023/11/23 03:40:21;;;;;;;4.60;2.70;;;9.20;93.90;;;;;;4968040;28;20443;-44
2023/11/23 03:42:49;;;;;;;4.30;2.73;;;9.20;93.90;;;;;;4968511;28;20466;-45
2023/11/23 03:45:17;;;;;;;4.70;2.60;;;9.20;93.80;;;;;;4969901;28;20820;-45
2023/11/23 03:47:47;;;;;;;4.70;3.73;;;9.20;93.80;;;;;;4969027;28;20466;-45
2023/11/23 03:50:16;;;;;;;5.07;4.10;;;9.20;93.90;;;;;;4955612;28;21006;-45
2023/11/23 03:52:44;;;;;;;5.07;3.10;;;9.20;93.90;;;;;;4967777;28;20470;-45
2023/11/23 03:55:13;;;;;;;3.20;2.70;;;9.20;93.90;;;;;;4966789;28;20478;-46
2023/11/23 03:57:41;;;;;;;5.43;3.73;;;9.20;93.90;;;;;;4968034;28;20525;-45
2023/11/23 04:00:10;;;;;;;3.00;2.37;;;9.10;93.90;;;;;;4968655;28;20455;-46
2023/11/23 04:02:38;;;;;;;4.60;2.83;;;9.20;93.90;;;;;;4967172;28;20475;-48
2023/11/23 04:05:08;;;;;;;3.93;3.53;;;9.20;94.00;;;;;;4968065;28;20912;-46
2023/11/23 04:07:38;;;;;;;3.20;2.47;;;9.20;94.00;;;;;;4969901;28;20528;-46
2023/11/23 04:10:08;;;;;;;3.90;3.23;;;9.20;94.10;;;;;;4972010;28;20530;-46
2023/11/23 04:12:36;;;;;;;4.03;2.90;;;9.20;94.10;;;;;;4973653;28;20459;-45
2023/11/23 04:15:04;;;;;;;5.47;4.00;;;9.20;94.20;;;;;;4974079;28;20542;-44
2023/11/23 04:17:33;;;;;;;3.73;2.87;;;9.10;94.20;;;;;;4973582;28;20474;-49
2023/11/23 04:20:01;;;;;;;3.73;3.30;;;9.20;94.20;;;;;;4972983;28;20467;-46
2023/11/23 04:22:29;;;;;;;4.40;3.70;;;9.10;94.20;;;;;;4973030;28;20521;-45
2023/11/23 04:24:59;;;;;;;5.83;4.00;;;9.20;94.20;;;;;;4971168;28;20489;-45
2023/11/23 04:27:27;;;;;;;6.10;3.93;;;9.20;94.30;;;;;;4973558;28;20501;-46
2023/11/23 04:29:55;;;;;;;5.33;3.77;;;9.20;94.40;;;;;;4973209;28;20462;-45
2023/11/23 04:32:23;;;;;;;3.50;2.87;;;9.20;94.40;;;;;;4972842;28;20470;-44
2023/11/23 04:34:52;;;;;;;4.40;3.60;;;9.10;94.30;;;;;;4968180;28;20450;-45
2023/11/23 04:37:23;;;;;;;7.67;3.60;;;9.10;94.30;;;;;;4973227;28;20528;-45
2023/11/23 04:39:52;;;;;;;4.23;3.40;;;9.20;94.40;;;;;;4971325;28;20786;-45
2023/11/23 04:42:21;;;;;;;5.70;3.93;;;9.10;94.30;;;;;;4972721;28;20898;-44
2023/11/23 04:44:48;;;;;;;4.10;3.50;;;9.20;94.50;;;;;;4973178;28;20936;-44
2023/11/23 04:47:16;;;;;;;4.57;3.33;;;9.20;94.50;;;;;;4973161;28;20466;-45
2023/11/23 04:49:44;;;;;;;3.73;3.07;;;9.10;94.50;;;;;;4968875;28;20486;-46
2023/11/23 04:52:12;;;;;;;5.70;3.73;;;9.20;94.40;;;;;;4969610;28;20517;-46
2023/11/23 04:54:41;;;;;;;4.80;3.67;;;9.20;94.50;;;;;;4970269;28;20442;-45
2023/11/23 04:57:09;;;;;;;4.33;3.60;;;9.10;94.40;;;;;;4971006;28;20544;-46
2023/11/23 04:59:38;;;;;;;4.47;3.43;;;9.10;94.40;;;;;;4970844;28;20460;-47
2023/11/23 05:02:07;;;;;;;4.73;3.50;;;9.10;94.60;;;;;;4970518;28;20786;-47
2023/11/23 05:04:35;;;;;;;5.27;3.30;;;9.10;94.50;;;;;;4967226;28;20510;-44
2023/11/23 05:07:05;;;;;;;4.63;3.87;;;9.20;94.60;;;;;;4972232;28;20466;-45
2023/11/23 05:09:33;;;;;;;5.27;3.40;;;9.10;94.70;;;;;;4972851;28;20450;-44
2023/11/23 05:12:01;;;;;;;4.13;3.40;;;9.10;94.70;;;;;;4970216;28;20595;-45
2023/11/23 05:14:29;;;;;;;4.93;3.00;;;9.10;94.80;;;;;;4973364;28;20509;-45
2023/11/23 05:16:59;;;;;;;4.10;3.03;;;9.10;94.80;;;;;;4972075;28;20520;-44
2023/11/23 05:19:27;;;;;;;6.63;3.87;;;9.10;94.80;;;;;;4972183;28;20423;-46
2023/11/23 05:22:09;;;;;;;5.30;3.13;;;9.10;94.80;;;;;;4971573;28;20466;-44
2023/11/23 05:24:37;;;;;;;4.13;3.37;;;9.10;94.80;;;;;;4972664;28;20482;-50
2023/11/23 05:27:06;;;;;;;3.90;3.20;;;9.10;94.70;;;;;;4971011;28;20465;-45
2023/11/23 05:29:44;;;;;;;;;;;;;;;;;;;;;
2023/11/23 05:37:55;;;;;;;6.00;3.63;;;9.10;94.50;;;;;;5023141;23;21209;-44
2023/11/23 05:40:23;;;;;;;5.20;3.80;;;9.10;94.60;;;;;;4969910;28;20441;-44
2023/11/23 05:42:51;;;;;;;4.10;3.13;;;9.10;94.70;;;;;;4970079;28;20470;-44
2023/11/23 05:45:32;;;;;;;4.90;3.73;;;9.10;94.80;;;;;;4983997;28;20459;-44
2023/11/23 05:48:01;;;;;;;4.73;3.97;;;9.10;95.00;;;;;;4971551;28;20540;-44
2023/11/23 05:50:29;;;;;;;3.50;2.93;;;9.10;94.90;;;;;;4965222;28;20639;-44
2023/11/23 05:52:58;;;;;;;4.60;3.57;;;9.10;94.80;;;;;;4969156;28;21003;-43
2023/11/23 05:55:26;;;;;;;5.10;3.10;;;9.10;94.90;;;;;;4967417;28;20515;-44
2023/11/23 05:57:54;;;;;;;4.37;3.57;;;9.10;95.00;;;;;;4970107;28;21173;-44
2023/11/23 06:00:23;;;;;;;3.87;2.80;;;9.10;94.90;;;;;;4970452;28;20447;-44
2023/11/23 06:02:51;;;;;;;5.53;4.23;;;9.10;95.00;;;;;;4967077;28;20505;-44
2023/11/23 06:05:19;;;;;;;5.20;3.90;;;9.10;95.00;;;;;;4971224;28;20532;-44
2023/11/23 06:07:47;;;;;;;6.03;3.93;;;9.10;95.10;;;;;;4970652;28;20479;-44
2023/11/23 06:10:17;;;;;;;4.80;3.60;;;9.10;95.00;;;;;;4969550;28;20533;-44
2023/11/23 06:12:48;;;;;;;4.97;3.33;;;9.10;94.90;;;;;;4971586;28;20473;-44
2023/11/23 06:15:17;;;;;;;4.10;3.30;;;9.10;95.00;;;;;;4966187;28;20438;-44
2023/11/23 06:17:46;;;;;;;5.20;3.57;;;9.10;94.70;;;;;;4970842;28;20569;-44
2023/11/23 06:20:14;;;;;;;4.77;3.27;;;9.10;94.80;;;;;;4966247;28;20449;-44
2023/11/23 06:22:42;;;;;;;4.63;3.60;;;9.10;94.80;;;;;;4971478;28;20466;-44
2023/11/23 06:25:12;;;;;;;4.63;3.63;;;9.10;94.90;;;;;;4969695;28;20869;-44
2023/11/23 06:27:41;;;;;;;5.17;3.83;;;9.10;95.00;;;;;;4971245;28;20458;-44
2023/11/23 06:30:11;;;;;;;4.47;2.97;;;9.10;95.20;;;;;;4970669;28;20553;-44
2023/11/23 06:32:39;;;;;;;4.32;3.30;;;9.10;94.90;;;;;;4970659;28;20320;-44
2023/11/23 06:35:08;;;;;;;5.87;4.17;;;9.10;95.00;;;;;;4970498;28;20203;-43
2023/11/23 06:37:36;;;;;;;4.27;3.40;;;9.10;95.00;;;;;;4971062;28;20509;-44
2023/11/23 06:40:09;;;;;;;6.53;4.40;;;9.10;95.00;;;;;;4969578;28;20534;-43
2023/11/23 06:42:37;;;;;;;7.80;4.70;;;9.10;95.20;;;;;;4970952;28;20454;-43
2023/11/23 06:45:09;;;;;;;7.27;4.10;;;9.10;95.00;;;;;;4971875;28;20793;-43
2023/11/23 06:47:41;;;;;;;6.80;4.07;;;9.10;95.10;;;;;;4970909;28;20475;-43
2023/11/23 06:50:10;;;;;;;4.87;3.33;;;9.10;95.30;;;;;;4964588;28;20463;-44
2023/11/23 06:52:38;;;;;;;5.23;3.37;;;9.10;95.10;;;;;;4970399;28;20469;-43
2023/11/23 06:55:06;;;;;;;5.27;4.33;;;9.10;95.00;;;;;;4967682;28;20440;-43
2023/11/23 06:57:39;;;;;;;5.67;4.40;;;9.10;95.10;;;;;;4969693;28;20843;-43
2023/11/23 07:00:16;;;;;;;5.57;3.67;;;9.10;95.10;;;;;;4968446;28;20947;-44
2023/11/23 07:02:47;;;;;;;5.97;4.67;;;9.10;95.00;;;;;;4969857;28;20493;-44
2023/11/23 07:05:15;;;;;;;5.83;3.70;;;9.10;95.10;;;;;;4962773;28;21046;-44
2023/11/23 07:07:43;;;;;;;5.30;3.83;;;9.10;95.10;;;;;;4970788;28;20466;-43
2023/11/23 07:10:13;;;;;;;7.00;4.30;;;9.10;95.00;;;;;;4968272;28;20549;-43
2023/11/23 07:12:44;;;;;;;5.60;4.17;;;9.10;95.10;;;;;;4970084;28;20549;-44
2023/11/23 07:15:14;;;;;;;7.70;4.37;;;9.10;95.10;;;;;;4970098;28;20909;-43
2023/11/23 07:17:44;;;;;;;5.60;4.40;;;9.10;95.10;;;;;;4970663;28;20470;-44
2023/11/23 07:20:12;;;;;;;5.80;4.57;;;9.10;95.40;;;;;;4962707;28;20895;-43
2023/11/23 07:22:41;;;;;;;7.17;4.83;;;9.10;95.30;;;;;;4982180;28;20459;-45
2023/11/23 07:25:13;;;;;;;6.07;4.03;;;9.10;95.30;;;;;;4968082;28;20442;-43
2023/11/23 07:27:41;;;;;;;4.93;4.40;;;9.10;95.40;;;;;;4970036;28;20462;-43
2023/11/23 07:30:10;;;;;;;5.80;4.10;;;9.10;95.40;;;;;;4969888;28;20554;-45
2023/11/23 07:32:40;;;;;;;8.20;4.57;;;9.10;95.50;;;;;;4969488;28;20454;-43
2023/11/23 07:35:09;;;;;;;5.83;4.23;;;9.10;95.60;;;;;;4967565;28;21010;-44
2023/11/23 07:37:37;;;;;;;6.20;4.73;;;9.10;95.60;;;;;;4969537;28;20984;-45
2023/11/23 07:40:13;;;;;;;6.07;3.97;;;9.10;95.60;;;;;;4968577;28;20537;-44
2023/11/23 07:42:43;;;;;;;5.57;4.20;;;9.10;95.50;;;;;;4969150;28;20458;-43
2023/11/23 07:45:12;;;;;;;6.90;4.40;;;9.10;95.40;;;;;;4970876;28;20427;-43
2023/11/23 07:47:45;;;;;;;6.77;4.23;;;9.10;95.70;;;;;;4967521;28;20896;-43
2023/11/23 07:50:16;;;;;;;10.03;4.20;;;9.10;95.50;;;;;;4963735;28;20441;-44
2023/11/23 07:52:46;;;;;;;5.20;4.00;;;9.10;95.70;;;;;;4967575;28;20462;-43
2023/11/23 07:55:17;;;;;;;4.30;3.53;;;9.10;95.70;;;;;;4962404;28;20450;-44
2023/11/23 07:57:47;;;;;;;5.80;4.27;;;9.10;95.70;;;;;;4969327;28;20605;-43
2023/11/23 08:00:23;;;;;;;6.57;4.87;;;9.10;95.60;;;;;;4963817;28;20434;-43
2023/11/23 08:02:54;;;;;;;5.03;4.20;;;9.10;95.70;;;;;;4969274;28;20466;-43
2023/11/23 08:05:23;;;;;;;4.67;3.90;;;9.10;95.50;;;;;;4966776;28;20438;-45
2023/11/23 08:07:52;;;;;;;6.47;4.70;;;9.10;95.50;;;;;;4968107;28;20992;-45
2023/11/23 08:10:20;;;;;;;7.33;5.50;;;9.20;95.80;;;;;;4966631;28;20559;-43
2023/11/23 08:12:48;;;;;;;8.57;5.67;;;9.20;96.40;;;;;;4968358;28;20532;-44
2023/11/23 08:15:16;;;;;;;7.70;5.80;;;9.20;96.20;;;;;;4970327;28;20522;-44
2023/11/23 08:17:44;;;;;;;5.10;4.60;;;9.20;96.40;;;;;;4969361;28;20466;-43
2023/11/23 08:20:30;;;;;;;5.97;4.60;;;9.20;96.20;;;;;;4962468;28;20857;-43
2023/11/23 08:22:58;;;;;;;8.03;5.20;;;9.20;96.20;;;;;;4969396;28;20467;-43
2023/11/23 08:25:27;;;;;;;6.57;4.63;;;9.20;96.40;;;;;;4967628;28;20550;-44
2023/11/23 08:27:55;;;;;;;8.23;5.13;;;9.20;96.40;;;;;;4969953;28;20485;-43
2023/11/23 08:30:24;;;;;;;6.43;5.30;;;9.10;96.40;;;;;;4969969;28;20434;-44
2023/11/23 08:32:52;;;;;;;8.37;4.93;;;9.20;96.40;;;;;;4968618;28;20458;-43
2023/11/23 08:35:20;;;;;;;5.37;3.90;;;9.10;96.80;;;;;;4966571;28;20916;-44
2023/11/23 08:37:50;;;;;;;5.90;5.03;;;9.20;96.30;;;;;;4969089;28;20466;-43
2023/11/23 08:40:18;;;;;;;6.03;4.60;;;9.20;96.10;;;;;;4967718;28;20450;-43
2023/11/23 08:42:46;;;;;;;5.67;4.27;;;9.10;96.10;;;;;;4969281;28;20478;-43
2023/11/23 08:45:14;;;;;;;6.63;4.57;;;9.20;96.20;;;;;;4969474;28;21044;-43
2023/11/23 08:47:42;;;;;;;5.70;4.37;;;9.10;96.10;;;;;;4969259;28;20473;-44
2023/11/23 08:50:13;;;;;;;5.77;4.97;;;9.10;96.60;;;;;;4962354;28;20466;-43
2023/11/23 08:52:41;;;;;;;5.70;4.60;;;9.20;96.20;;;;;;4967849;28;20545;-43
2023/11/23 08:55:11;;;;;;;6.37;4.40;;;9.20;96.30;;;;;;4969445;28;20466;-43
2023/11/23 08:57:40;;;;;;;5.10;4.53;;;9.20;96.20;;;;;;4971734;28;20482;-44
2023/11/23 09:00:11;;;;;;;4.70;4.20;;;9.10;96.30;;;;;;4969700;28;20485;-43
2023/11/23 09:02:39;;;;;;;8.50;4.87;;;9.20;96.40;;;;;;4969376;28;20818;-44
2023/11/23 09:05:09;;;;;;;6.78;3.95;;;9.20;96.30;;;;;;4972388;28;20881;-43
2023/11/23 09:07:40;;;;;;;8.73;4.60;;;9.10;96.10;;;;;;4973346;28;20229;-44
2023/11/23 09:10:12;;;;;;;5.10;4.40;;;9.20;96.20;;;;;;4970794;28;20450;-44
2023/11/23 09:12:40;;;;;;;4.70;4.03;;;9.20;96.40;;;;;;4972740;28;20473;-44
2023/11/23 09:15:13;;;;;;;7.40;4.63;;;9.20;96.40;;;;;;4971958;28;20427;-43
2023/11/23 09:17:41;;;;;;;5.17;4.10;;;9.10;96.40;;;;;;4971451;28;20476;-44
2023/11/23 09:20:12;;;;;;;5.00;3.47;;;9.10;96.20;;;;;;4969204;28;20451;-43
2023/11/23 09:22:40;;;;;;;5.77;3.70;;;9.10;96.20;;;;;;4972120;28;20534;-43
2023/11/23 09:25:11;;;;;;;6.20;4.23;;;9.10;96.30;;;;;;4971417;28;20453;-43
2023/11/23 09:27:39;;;;;;;5.20;3.88;;;9.10;96.20;;;;;;4972294;28;20521;-44
2023/11/23 09:30:11;;;;;;;5.85;3.50;;;9.20;96.30;;;;;;4972350;28;20639;-44
2023/11/23 09:32:40;;;;;;;8.40;4.63;;;9.10;96.90;;;;;;4972448;28;20272;-44
2023/11/23 09:35:11;;;;;;;6.67;4.93;;;9.10;96.40;;;;;;4968190;28;20455;-43
2023/11/23 09:37:39;;;;;;;5.03;4.53;;;9.20;96.40;;;;;;4971609;28;20466;-45
2023/11/23 09:40:17;;;;;;;6.97;4.43;;;9.10;96.70;;;;;;4969860;28;20497;-44
2023/11/23 09:42:47;;;;;;;6.17;3.90;;;9.20;96.10;;;;;;4972364;28;20458;-43
2023/11/23 09:45:19;;;;;;;5.60;4.40;;;9.20;96.20;;;;;;4970905;28;20442;-43
2023/11/23 09:47:53;;;;;;;4.20;3.40;;;9.20;96.30;;;;;;4970206;28;20313;-43
2023/11/23 09:50:21;;;;;;;5.77;4.20;;;9.20;96.30;;;;;;4972048;28;20901;-43
2023/11/23 09:52:50;;;;;;;7.10;4.37;;;9.20;96.30;;;;;;4971686;28;20478;-44
2023/11/23 09:55:20;;;;;;;5.90;3.73;;;9.20;96.30;;;;;;4969632;28;20542;-44
2023/11/23 09:57:49;;;;;;;5.73;4.27;;;9.20;96.60;;;;;;4970953;28;20502;-44
2023/11/23 10:00:18;;;;;;;6.33;5.20;;;9.20;96.90;;;;;;4972338;28;20434;-43
2023/11/23 10:02:49;;;;;;;6.50;4.10;;;9.20;97.30;;;;;;4967871;28;20480;-44
2023/11/23 10:05:18;;;;;;;5.60;5.00;;;9.20;97.00;;;;;;4970481;28;20431;-44
2023/11/23 10:07:47;;;;;;;4.20;3.50;;;9.30;97.10;;;;;;4971574;28;20517;-44
2023/11/23 10:10:15;;;;;;;5.20;4.13;;;9.30;96.80;;;;;;4963495;28;20940;-43
2023/11/23 10:12:45;;;;;;;4.73;3.20;;;9.30;96.80;;;;;;4971615;28;20471;-44
2023/11/23 10:15:13;;;;;;;7.00;4.20;;;9.20;96.40;;;;;;4970868;28;20943;-43
2023/11/23 10:17:41;;;;;;;4.30;3.90;;;9.30;96.60;;;;;;4967338;28;20486;-43
2023/11/23 10:20:12;;;;;;;5.77;3.70;;;9.30;96.60;;;;;;4971748;28;20454;-43
2023/11/23 10:22:43;;;;;;;7.27;4.13;;;9.30;96.40;;;;;;4969898;28;20463;-43
2023/11/23 10:25:24;;;;;;;5.30;4.20;;;9.30;96.50;;;;;;4970089;28;20528;-44
2023/11/23 10:27:58;;;;;;;6.60;3.77;;;9.30;96.20;;;;;;4971335;28;20482;-43
2023/11/23 10:30:27;;;;;;;7.83;3.63;;;9.30;96.30;;;;;;4971552;28;20427;-43
2023/11/23 10:32:56;;;;;;;4.20;3.40;;;9.30;96.20;;;;;;4970409;28;21043;-43
2023/11/23 10:35:31;;;;;;;4.93;3.83;;;9.30;96.10;;;;;;4968298;28;20449;-43
2023/11/23 10:37:59;;;;;;;4.60;3.23;;;9.30;96.30;;;;;;4970991;28;20700;-43
2023/11/23 10:40:29;;;;;;;4.87;3.93;;;9.30;96.30;;;;;;4970010;28;20442;-43
2023/11/23 10:43:01;;;;;;;6.23;4.17;;;9.30;96.20;;;;;;4969779;28;20473;-44
2023/11/23 10:45:30;;;;;;;6.20;4.00;;;9.30;96.40;;;;;;4971496;28;20442;-44
2023/11/23 10:48:04;;;;;;;5.77;4.20;;;9.30;96.70;;;;;;4969628;28;20478;-43
2023/11/23 10:50:33;;;;;;;6.53;3.50;;;9.30;96.90;;;;;;4970292;28;20453;-45
2023/11/23 10:53:03;;;;;;;7.27;4.07;;;9.30;97.10;;;;;;4969058;28;20478;-43
2023/11/23 10:55:31;;;;;;;6.67;3.77;;;9.30;97.10;;;;;;4967838;28;20443;-44
2023/11/23 10:58:06;;;;;;;5.20;4.00;;;9.30;96.70;;;;;;4969117;28;20518;-45
2023/11/23 11:00:36;;;;;;;5.33;3.80;;;9.30;96.50;;;;;;4968235;28;20435;-44
2023/11/23 11:03:08;;;;;;;6.87;4.20;;;9.30;96.50;;;;;;4969108;28;20467;-44
2023/11/23 11:05:45;;;;;;;4.40;3.60;;;9.30;96.50;;;;;;4963479;28;20454;-44
2023/11/23 11:08:18;;;;;;;4.73;3.53;;;9.40;96.60;;;;;;4964022;28;20558;-44
2023/11/23 11:10:50;;;;;;;4.50;3.70;;;9.30;96.40;;;;;;4968978;28;20521;-45
2023/11/23 11:13:24;;;;;;;5.33;4.27;;;9.30;96.30;;;;;;4964636;28;20469;-44
2023/11/23 11:15:53;;;;;;;4.97;3.77;;;9.30;96.30;;;;;;4970829;28;20461;-43
2023/11/23 11:18:22;;;;;;;5.50;3.50;;;9.30;96.30;;;;;;4970226;28;20471;-44
2023/11/23 11:21:10;;;;;;;3.77;3.17;;;9.30;96.40;;;;;;4968324;28;20439;-44
2023/11/23 11:23:40;;;;;;;5.30;3.50;;;9.30;96.20;;;;;;4970870;28;21023;-44
2023/11/23 11:26:13;;;;;;;4.13;3.57;;;9.30;96.20;;;;;;4967760;28;20984;-44
2023/11/23 11:28:54;;;;;;;3.40;3.00;;;9.30;96.40;;;;;;4970011;28;20458;-44
2023/11/23 11:31:31;;;;;;;3.70;3.40;;;9.30;96.30;;;;;;4964393;28;20431;-44
2023/11/23 11:34:00;;;;;;;6.03;3.50;;;9.30;96.20;;;;;;4970706;28;20577;-44
2023/11/23 11:36:29;;;;;;;3.60;3.10;;;9.30;96.30;;;;;;4966961;28;20964;-43
2023/11/23 11:38:59;;;;;;;6.00;3.90;;;9.30;96.30;;;;;;4970306;28;20522;-46
2023/11/23 11:41:31;;;;;;;4.53;3.70;;;9.30;96.40;;;;;;4968079;28;21035;-44
2023/11/23 11:44:00;;;;;;;3.90;3.37;;;9.30;96.20;;;;;;4969357;28;20474;-43
2023/11/23 11:46:29;;;;;;;6.37;3.90;;;9.30;96.10;;;;;;4970423;28;20447;-44
2023/11/23 11:48:58;;;;;;;4.23;3.83;;;9.40;96.10;;;;;;4965512;28;21019;-42
2023/11/23 11:51:26;;;;;;;6.90;3.67;;;9.40;96.30;;;;;;4969632;28;20431;-45
2023/11/23 11:53:55;;;;;;;4.07;3.53;;;9.30;96.30;;;;;;4969470;28;20546;-45
2023/11/23 11:56:25;;;;;;;4.60;3.90;;;9.30;96.20;;;;;;4968266;28;20450;-44
2023/11/23 11:58:53;;;;;;;3.77;3.37;;;9.30;96.20;;;;;;4969596;28;20439;-44
2023/11/23 12:01:23;;;;;;;4.33;3.13;;;9.30;96.40;;;;;;4967875;28;20839;-42
2023/11/23 12:03:51;;;;;;;6.30;5.27;;;9.30;96.50;;;;;;4969183;28;20828;-43
2023/11/23 12:06:20;;;;;;;10.03;5.63;;;9.40;97.70;;;;;;4969161;28;20534;-44
2023/11/23 12:08:49;;;;;;;5.97;5.07;;;9.40;98.70;;;;;;4968598;28;20960;-44
2023/11/23 12:11:23;;;;;;;9.13;5.27;;;9.50;98.90;;;;;;4962942;28;20477;-43
2023/11/23 12:13:55;;;;;;;6.30;4.60;;;9.50;98.50;;;;;;4969495;28;20474;-43
2023/11/23 12:16:34;;;;;;;4.70;3.90;;;9.50;98.00;;;;;;4970080;28;20430;-44
2023/11/23 12:19:15;;;;;;;4.47;4.03;;;9.50;97.70;;;;;;4964692;28;20960;-43
2023/11/23 12:21:55;;;;;;;5.73;4.27;;;9.50;97.60;;;;;;4966734;28;20473;-44
2023/11/23 12:24:25;;;;;;;4.10;3.50;;;9.50;97.30;;;;;;4970655;28;20462;-43
2023/11/23 12:26:59;;;;;;;5.87;3.57;;;9.50;97.30;;;;;;4966674;28;20921;-43
2023/11/23 12:29:29;;;;;;;5.53;4.03;;;9.60;97.30;;;;;;4972129;28;20431;-44
2023/11/23 12:32:01;;;;;;;4.20;3.27;;;9.60;97.20;;;;;;4973021;28;20525;-44
2023/11/23 12:34:30;;;;;;;4.43;3.50;;;9.60;97.00;;;;;;4966753;28;20466;-43
2023/11/23 12:36:59;;;;;;;4.20;3.67;;;9.60;97.00;;;;;;4973295;28;20936;-44
2023/11/23 12:39:28;;;;;;;5.40;3.70;;;9.60;96.90;;;;;;4973874;28;20423;-44
2023/11/23 12:41:57;;;;;;;4.17;3.70;;;9.60;97.10;;;;;;4970503;28;21039;-43
2023/11/23 12:44:25;;;;;;;5.30;3.57;;;9.60;96.90;;;;;;4974263;28;20446;-44
2023/11/23 12:46:55;;;;;;;4.73;4.33;;;9.60;96.80;;;;;;4973149;28;20478;-43
2023/11/23 12:49:28;;;;;;;4.17;3.10;;;9.60;96.70;;;;;;4970985;28;20446;-43
2023/11/23 12:51:56;;;;;;;3.90;3.50;;;9.60;96.70;;;;;;4972060;28;20473;-43
2023/11/23 12:54:24;;;;;;;7.17;3.77;;;9.60;96.60;;;;;;4973408;28;20466;-43
2023/11/23 12:56:53;;;;;;;3.37;2.70;;;9.60;96.90;;;;;;4970895;28;20474;-43
2023/11/23 12:59:23;;;;;;;4.83;3.10;;;9.60;96.70;;;;;;4973316;28;20919;-43
2023/11/23 13:01:52;;;;;;;3.57;2.73;;;9.60;96.60;;;;;;4972243;28;21055;-45
2023/11/23 13:04:20;;;;;;;4.33;3.33;;;9.60;96.60;;;;;;4967841;28;20501;-44
2023/11/23 13:06:51;;;;;;;3.37;3.07;;;9.60;96.70;;;;;;4971697;28;20490;-44
2023/11/23 13:09:23;;;;;;;5.20;3.60;;;9.70;96.70;;;;;;4971332;28;20514;-44
2023/11/23 13:11:53;;;;;;;5.13;4.00;;;9.70;97.70;;;;;;4968557;28;20466;-44
2023/11/23 13:14:22;;;;;;;7.97;3.10;;;9.70;97.20;;;;;;4972912;28;20455;-44
2023/11/23 13:16:53;;;;;;;4.50;3.40;;;9.70;96.90;;;;;;4972550;28;20480;-44
2023/11/23 13:19:21;;;;;;;5.40;3.23;;;9.70;96.80;;;;;;4971802;28;20458;-44
2023/11/23 13:22:06;;;;;;;4.17;3.00;;;9.70;96.80;;;;;;4971868;28;20547;-44
2023/11/23 13:24:36;;;;;;;5.87;3.90;;;9.70;96.70;;;;;;4972689;28;21079;-44
2023/11/23 13:27:06;;;;;;;4.40;3.47;;;9.70;96.70;;;;;;4971106;28;20501;-44